sensor_id;sensor_type;location;lat;lon;timestamp;pressure;altitude;pressure_sealevel;temperature;humidity
13974;BME280;7060;43.770;4.008;2023-09-19T00:02:24;101152.59;;;21.69;46.54
13974;BME280;7060;43.770;4.008;2023-09-19T00:04:54;101144.63;;;21.68;46.27
13974;BME280;7060;43.770;4.008;2023-09-19T00:07:28;100878.41;;;20.19;46.22
13974;BME280;7060;43.770;4.008;2023-09-19T00:09:58;101090.19;;;21.48;46.32
13974;BME280;7060;43.770;4.008;2023-09-19T00:12:31;101134.59;;;21.68;46.68
13974;BME280;7060;43.770;4.008;2023-09-19T00:15:01;101119.47;;;21.46;46.53
13974;BME280;7060;43.770;4.008;2023-09-19T00:17:34;101006.66;;;20.82;46.90
13974;BME280;7060;43.770;4.008;2023-09-19T00:20:09;101079.50;;;21.26;47.12
13974;BME280;7060;43.770;4.008;2023-09-19T00:22:44;101135.44;;;21.69;46.85
13974;BME280;7060;43.770;4.008;2023-09-19T00:25:15;100805.38;;;19.57;47.04
13974;BME280;7060;43.770;4.008;2023-09-19T00:27:46;101057.97;;;21.12;47.12
13974;BME280;7060;43.770;4.008;2023-09-19T00:30:19;101138.53;;;21.52;47.38
13974;BME280;7060;43.770;4.008;2023-09-19T00:32:55;101099.38;;;21.14;47.67
13974;BME280;7060;43.770;4.008;2023-09-19T00:35:26;101142.50;;;21.37;48.31
13974;BME280;7060;43.770;4.008;2023-09-19T00:37:56;101099.50;;;20.99;48.61
13974;BME280;7060;43.770;4.008;2023-09-19T00:40:25;101138.03;;;21.16;48.52
13974;BME280;7060;43.770;4.008;2023-09-19T00:43:03;101132.59;;;21.03;48.69
13974;BME280;7060;43.770;4.008;2023-09-19T00:45:33;101077.50;;;20.74;48.81
13974;BME280;7060;43.770;4.008;2023-09-19T00:48:08;101072.47;;;20.71;49.00
13974;BME280;7060;43.770;4.008;2023-09-19T00:50:48;101121.03;;;20.87;49.16
13974;BME280;7060;43.770;4.008;2023-09-19T00:53:21;101026.56;;;20.28;49.67
13974;BME280;7060;43.770;4.008;2023-09-19T00:55:55;100929.06;;;19.51;50.23
13974;BME280;7060;43.770;4.008;2023-09-19T00:58:26;101152.13;;;20.78;50.81
13974;BME280;7060;43.770;4.008;2023-09-19T01:01:02;101145.56;;;20.66;51.03
13974;BME280;7060;43.770;4.008;2023-09-19T01:03:37;101155.13;;;20.49;51.62
13974;BME280;7060;43.770;4.008;2023-09-19T01:06:17;101151.31;;;20.43;51.97
13974;BME280;7060;43.770;4.008;2023-09-19T01:08:48;101162.31;;;20.35;52.23
13974;BME280;7060;43.770;4.008;2023-09-19T01:11:35;101028.31;;;19.46;52.01
13974;BME280;7060;43.770;4.008;2023-09-19T01:14:28;101137.81;;;19.94;52.46
13974;BME280;7060;43.770;4.008;2023-09-19T01:17:04;101168.63;;;20.14;52.89
13974;BME280;7060;43.770;4.008;2023-09-19T01:22:44;101161.66;;;19.99;53.40
13974;BME280;7060;43.770;4.008;2023-09-19T01:28:34;101079.00;;;19.24;54.48
13974;BME280;7060;43.770;4.008;2023-09-19T01:31:11;101181.56;;;19.63;54.75
13974;BME280;7060;43.770;4.008;2023-09-19T01:33:58;101158.59;;;19.59;55.01
13974;BME280;7060;43.770;4.008;2023-09-19T01:36:30;101097.53;;;19.06;55.40
13974;BME280;7060;43.770;4.008;2023-09-19T01:39:05;101168.47;;;19.45;55.66
13974;BME280;7060;43.770;4.008;2023-09-19T01:41:56;101168.41;;;19.39;55.52
13974;BME280;7060;43.770;4.008;2023-09-19T01:44:40;100998.66;;;18.23;55.72
13974;BME280;7060;43.770;4.008;2023-09-19T01:47:22;101103.06;;;18.76;56.14
13974;BME280;7060;43.770;4.008;2023-09-19T01:49:56;101175.09;;;19.21;56.35
13974;BME280;7060;43.770;4.008;2023-09-19T01:52:36;101108.59;;;18.68;56.33
13974;BME280;7060;43.770;4.008;2023-09-19T01:55:15;100864.91;;;17.16;56.60
13974;BME280;7060;43.770;4.008;2023-09-19T01:57:55;100991.78;;;17.91;56.52
13974;BME280;7060;43.770;4.008;2023-09-19T02:00:32;101167.03;;;18.92;56.81
13974;BME280;7060;43.770;4.008;2023-09-19T02:03:06;101175.91;;;18.86;57.60
13974;BME280;7060;43.770;4.008;2023-09-19T02:05:38;101143.41;;;18.42;57.69
13974;BME280;7060;43.770;4.008;2023-09-19T02:08:08;100934.47;;;16.99;57.84
13974;BME280;7060;43.770;4.008;2023-09-19T02:10:39;101176.81;;;18.49;57.56
13974;BME280;7060;43.770;4.008;2023-09-19T02:13:10;101057.84;;;17.82;57.64
13974;BME280;7060;43.770;4.008;2023-09-19T02:15:44;101098.44;;;18.11;57.16
13974;BME280;7060;43.770;4.008;2023-09-19T02:18:16;101149.94;;;18.33;57.60
13974;BME280;7060;43.770;4.008;2023-09-19T02:20:55;100981.94;;;17.31;57.48
13974;BME280;7060;43.770;4.008;2023-09-19T02:23:26;101102.22;;;17.87;58.25
13974;BME280;7060;43.770;4.008;2023-09-19T02:25:58;101196.88;;;18.25;58.49
13974;BME280;7060;43.770;4.008;2023-09-19T02:28:29;101123.06;;;17.41;58.74
13974;BME280;7060;43.770;4.008;2023-09-19T02:31:04;101199.94;;;18.07;58.77
13974;BME280;7060;43.770;4.008;2023-09-19T02:33:35;101145.66;;;17.48;59.36
13974;BME280;7060;43.770;4.008;2023-09-19T02:36:11;101217.25;;;17.98;59.19
13974;BME280;7060;43.770;4.008;2023-09-19T02:38:47;101198.63;;;18.03;59.15
13974;BME280;7060;43.770;4.008;2023-09-19T02:41:17;101123.63;;;17.59;58.80
13974;BME280;7060;43.770;4.008;2023-09-19T02:43:46;101202.47;;;18.09;59.05
13974;BME280;7060;43.770;4.008;2023-09-19T02:46:18;101218.03;;;18.07;59.22
13974;BME280;7060;43.770;4.008;2023-09-19T02:48:50;101055.75;;;17.09;59.37
13974;BME280;7060;43.770;4.008;2023-09-19T02:51:20;101161.28;;;17.61;59.50
13974;BME280;7060;43.770;4.008;2023-09-19T02:53:53;101134.72;;;17.42;59.37
13974;BME280;7060;43.770;4.008;2023-09-19T02:56:23;101135.59;;;17.34;59.72
13974;BME280;7060;43.770;4.008;2023-09-19T02:58:54;101051.06;;;16.80;60.24
13974;BME280;7060;43.770;4.008;2023-09-19T03:01:24;101038.47;;;16.72;60.29
13974;BME280;7060;43.770;4.008;2023-09-19T03:04:04;100962.25;;;16.31;59.92
13974;BME280;7060;43.770;4.008;2023-09-19T03:06:39;101114.41;;;17.23;60.10
13974;BME280;7060;43.770;4.008;2023-09-19T03:09:09;101122.53;;;17.23;60.11
13974;BME280;7060;43.770;4.008;2023-09-19T03:11:41;101201.66;;;17.63;60.10
13974;BME280;7060;43.770;4.008;2023-09-19T03:14:25;101205.56;;;17.60;60.15
13974;BME280;7060;43.770;4.008;2023-09-19T03:17:00;101113.88;;;17.05;60.12
13974;BME280;7060;43.770;4.008;2023-09-19T03:19:34;101024.53;;;16.52;60.20
13974;BME280;7060;43.770;4.008;2023-09-19T03:22:06;101160.31;;;17.31;60.24
13974;BME280;7060;43.770;4.008;2023-09-19T03:24:36;100991.06;;;16.39;59.66
13974;BME280;7060;43.770;4.008;2023-09-19T03:27:08;101184.59;;;17.62;59.85
13974;BME280;7060;43.770;4.008;2023-09-19T03:29:38;100993.44;;;16.34;59.91
13974;BME280;7060;43.770;4.008;2023-09-19T03:32:08;101135.41;;;17.13;60.45
13974;BME280;7060;43.770;4.008;2023-09-19T03:34:40;101177.81;;;17.35;60.21
13974;BME280;7060;43.770;4.008;2023-09-19T03:37:14;101101.50;;;16.79;60.72
13974;BME280;7060;43.770;4.008;2023-09-19T03:39:48;101170.59;;;17.05;60.66
13974;BME280;7060;43.770;4.008;2023-09-19T03:42:21;100946.88;;;15.70;60.49
13974;BME280;7060;43.770;4.008;2023-09-19T03:44:54;101096.19;;;16.63;60.59
13974;BME280;7060;43.770;4.008;2023-09-19T03:47:25;101213.91;;;17.19;60.51
13974;BME280;7060;43.770;4.008;2023-09-19T03:50:01;101213.94;;;17.11;60.55
13974;BME280;7060;43.770;4.008;2023-09-19T03:52:32;101199.66;;;17.03;60.92
13974;BME280;7060;43.770;4.008;2023-09-19T03:55:04;101214.88;;;16.96;61.04
13974;BME280;7060;43.770;4.008;2023-09-19T03:57:33;101191.13;;;16.83;61.37
13974;BME280;7060;43.770;4.008;2023-09-19T04:00:04;101205.50;;;16.75;62.02
13974;BME280;7060;43.770;4.008;2023-09-19T04:02:40;101018.47;;;15.48;62.27
13974;BME280;7060;43.770;4.008;2023-09-19T04:05:12;101217.84;;;16.53;62.48
13974;BME280;7060;43.770;4.008;2023-09-19T04:07:41;101185.19;;;16.32;62.86
13974;BME280;7060;43.770;4.008;2023-09-19T04:10:10;101170.16;;;16.38;62.69
13974;BME280;7060;43.770;4.008;2023-09-19T04:12:50;101219.22;;;16.66;62.49
13974;BME280;7060;43.770;4.008;2023-09-19T04:15:22;101215.97;;;16.62;62.73
13974;BME280;7060;43.770;4.008;2023-09-19T04:17:55;101228.13;;;16.58;62.98
13974;BME280;7060;43.770;4.008;2023-09-19T04:20:25;101023.22;;;15.38;62.54
13974;BME280;7060;43.770;4.008;2023-09-19T04:22:54;101219.34;;;16.56;63.15
13974;BME280;7060;43.770;4.008;2023-09-19T04:25:24;101220.53;;;16.53;63.07
13974;BME280;7060;43.770;4.008;2023-09-19T04:27:55;101214.69;;;16.50;63.28
13974;BME280;7060;43.770;4.008;2023-09-19T04:30:24;101218.72;;;16.46;63.58
13974;BME280;7060;43.770;4.008;2023-09-19T04:32:53;101241.00;;;16.40;63.95
13974;BME280;7060;43.770;4.008;2023-09-19T04:35:23;101224.66;;;16.33;63.99
13974;BME280;7060;43.770;4.008;2023-09-19T04:37:57;101195.00;;;16.17;63.73
13974;BME280;7060;43.770;4.008;2023-09-19T04:40:27;101227.34;;;16.33;63.73
13974;BME280;7060;43.770;4.008;2023-09-19T04:42:58;101227.19;;;16.35;63.38
13974;BME280;7060;43.770;4.008;2023-09-19T04:45:28;101225.50;;;16.34;63.40
13974;BME280;7060;43.770;4.008;2023-09-19T04:47:58;101225.81;;;16.31;63.41
13974;BME280;7060;43.770;4.008;2023-09-19T04:50:28;101229.19;;;16.33;63.50
13974;BME280;7060;43.770;4.008;2023-09-19T04:53:00;101222.78;;;16.42;63.27
13974;BME280;7060;43.770;4.008;2023-09-19T04:55:30;101230.19;;;16.48;63.18
13974;BME280;7060;43.770;4.008;2023-09-19T04:58:00;101231.38;;;16.45;63.31
13974;BME280;7060;43.770;4.008;2023-09-19T05:00:30;101222.13;;;16.32;63.67
13974;BME280;7060;43.770;4.008;2023-09-19T05:03:03;101182.41;;;15.93;63.90
13974;BME280;7060;43.770;4.008;2023-09-19T05:05:33;101242.69;;;16.24;64.44
13974;BME280;7060;43.770;4.008;2023-09-19T05:08:06;101168.22;;;15.75;64.02
13974;BME280;7060;43.770;4.008;2023-09-19T05:10:37;101242.91;;;16.23;63.55
13974;BME280;7060;43.770;4.008;2023-09-19T05:13:07;101207.66;;;16.00;63.64
13974;BME280;7060;43.770;4.008;2023-09-19T05:15:36;101235.63;;;16.07;63.51
13974;BME280;7060;43.770;4.008;2023-09-19T05:18:06;101221.47;;;15.97;63.57
13974;BME280;7060;43.770;4.008;2023-09-19T05:20:39;101065.13;;;15.00;63.65
13974;BME280;7060;43.770;4.008;2023-09-19T05:23:12;101244.56;;;16.08;63.98
13974;BME280;7060;43.770;4.008;2023-09-19T05:25:43;101219.13;;;15.78;64.59
13974;BME280;7060;43.770;4.008;2023-09-19T05:28:19;101250.16;;;15.90;64.60
13974;BME280;7060;43.770;4.008;2023-09-19T05:30:48;101187.38;;;15.47;65.17
13974;BME280;7060;43.770;4.008;2023-09-19T05:33:18;101220.66;;;15.64;65.15
13974;BME280;7060;43.770;4.008;2023-09-19T05:36:00;101256.03;;;15.77;65.53
13974;BME280;7060;43.770;4.008;2023-09-19T05:38:31;101261.22;;;15.71;65.87
13974;BME280;7060;43.770;4.008;2023-09-19T05:41:00;101253.97;;;15.63;66.17
13974;BME280;7060;43.770;4.008;2023-09-19T05:43:29;101253.78;;;15.56;66.16
13974;BME280;7060;43.770;4.008;2023-09-19T05:46:00;101233.53;;;15.44;66.44
13974;BME280;7060;43.770;4.008;2023-09-19T05:48:29;101260.53;;;15.61;66.34
13974;BME280;7060;43.770;4.008;2023-09-19T05:50:57;101260.75;;;15.67;66.39
13974;BME280;7060;43.770;4.008;2023-09-19T05:53:27;101261.41;;;15.77;66.22
13974;BME280;7060;43.770;4.008;2023-09-19T05:55:57;101259.91;;;15.91;65.79
13974;BME280;7060;43.770;4.008;2023-09-19T05:58:28;101257.22;;;15.91;65.88
13974;BME280;7060;43.770;4.008;2023-09-19T06:00:58;101259.22;;;15.97;65.85
13974;BME280;7060;43.770;4.008;2023-09-19T06:03:27;101259.75;;;15.92;65.98
13974;BME280;7060;43.770;4.008;2023-09-19T06:05:58;101237.31;;;15.76;66.34
13974;BME280;7060;43.770;4.008;2023-09-19T06:08:26;101262.09;;;15.87;66.36
13974;BME280;7060;43.770;4.008;2023-09-19T06:10:57;101271.88;;;15.97;66.28
13974;BME280;7060;43.770;4.008;2023-09-19T06:13:28;101265.97;;;16.01;66.35
13974;BME280;7060;43.770;4.008;2023-09-19T06:15:57;101263.63;;;16.06;66.55
13974;BME280;7060;43.770;4.008;2023-09-19T06:18:26;101261.94;;;16.13;66.47
13974;BME280;7060;43.770;4.008;2023-09-19T06:20:56;101274.41;;;16.14;66.73
13974;BME280;7060;43.770;4.008;2023-09-19T06:23:25;101265.16;;;16.17;66.64
13974;BME280;7060;43.770;4.008;2023-09-19T06:25:57;101266.97;;;16.33;66.31
13974;BME280;7060;43.770;4.008;2023-09-19T06:28:26;101271.00;;;16.53;65.97
13974;BME280;7060;43.770;4.008;2023-09-19T06:30:55;101270.31;;;16.75;65.55
13974;BME280;7060;43.770;4.008;2023-09-19T06:33:24;101260.78;;;16.96;65.46
13974;BME280;7060;43.770;4.008;2023-09-19T06:35:53;101269.78;;;17.27;65.33
13974;BME280;7060;43.770;4.008;2023-09-19T06:38:26;101273.28;;;17.67;64.53
13974;BME280;7060;43.770;4.008;2023-09-19T06:40:55;101269.44;;;18.07;64.00
13974;BME280;7060;43.770;4.008;2023-09-19T06:43:26;101262.44;;;18.35;62.89
13974;BME280;7060;43.770;4.008;2023-09-19T06:45:55;101256.19;;;18.49;62.41
13974;BME280;7060;43.770;4.008;2023-09-19T06:48:24;101256.69;;;18.53;62.16
13974;BME280;7060;43.770;4.008;2023-09-19T06:50:53;101264.81;;;18.53;62.51
13974;BME280;7060;43.770;4.008;2023-09-19T06:53:24;101260.63;;;18.65;62.48
13974;BME280;7060;43.770;4.008;2023-09-19T06:55:53;101255.38;;;18.78;62.21
13974;BME280;7060;43.770;4.008;2023-09-19T06:58:22;101246.81;;;18.89;62.19
13974;BME280;7060;43.770;4.008;2023-09-19T07:00:52;101260.50;;;19.03;62.02
13974;BME280;7060;43.770;4.008;2023-09-19T07:03:21;101255.94;;;19.18;62.16
13974;BME280;7060;43.770;4.008;2023-09-19T07:05:53;101261.13;;;19.34;62.09
13974;BME280;7060;43.770;4.008;2023-09-19T07:08:24;101263.06;;;19.55;61.42
13974;BME280;7060;43.770;4.008;2023-09-19T07:10:53;101258.72;;;19.75;61.34
13974;BME280;7060;43.770;4.008;2023-09-19T07:13:22;101259.34;;;19.99;60.55
13974;BME280;7060;43.770;4.008;2023-09-19T07:15:54;101263.56;;;20.22;59.22
13974;BME280;7060;43.770;4.008;2023-09-19T07:18:24;101262.66;;;20.43;58.20
13974;BME280;7060;43.770;4.008;2023-09-19T07:20:57;101260.72;;;20.65;57.17
13974;BME280;7060;43.770;4.008;2023-09-19T07:23:28;101260.22;;;20.83;56.50
13974;BME280;7060;43.770;4.008;2023-09-19T07:25:57;101262.78;;;20.98;55.69
13974;BME280;7060;43.770;4.008;2023-09-19T07:28:27;101254.97;;;21.09;55.68
13974;BME280;7060;43.770;4.008;2023-09-19T07:31:01;101262.72;;;21.19;55.14
13974;BME280;7060;43.770;4.008;2023-09-19T07:33:30;101254.00;;;21.30;54.78
13974;BME280;7060;43.770;4.008;2023-09-19T07:36:00;101259.69;;;21.48;54.08
13974;BME280;7060;43.770;4.008;2023-09-19T07:38:29;101265.81;;;21.63;54.17
13974;BME280;7060;43.770;4.008;2023-09-19T07:41:00;101252.22;;;21.77;52.56
13974;BME280;7060;43.770;4.008;2023-09-19T07:43:30;101259.84;;;21.94;52.52
13974;BME280;7060;43.770;4.008;2023-09-19T07:46:04;101259.63;;;22.09;51.70
13974;BME280;7060;43.770;4.008;2023-09-19T07:48:34;101254.81;;;22.18;49.25
13974;BME280;7060;43.770;4.008;2023-09-19T07:51:05;101258.38;;;22.32;48.63
13974;BME280;7060;43.770;4.008;2023-09-19T07:53:35;101247.69;;;22.43;48.85
13974;BME280;7060;43.770;4.008;2023-09-19T07:56:06;101251.03;;;22.65;48.55
13974;BME280;7060;43.770;4.008;2023-09-19T07:58:39;101256.00;;;22.81;47.70
13974;BME280;7060;43.770;4.008;2023-09-19T08:01:13;101253.06;;;22.89;47.49
13974;BME280;7060;43.770;4.008;2023-09-19T08:03:43;101258.06;;;22.99;47.13
13974;BME280;7060;43.770;4.008;2023-09-19T08:06:13;101250.66;;;23.13;47.28
13974;BME280;7060;43.770;4.008;2023-09-19T08:08:42;101258.00;;;23.25;46.87
13974;BME280;7060;43.770;4.008;2023-09-19T08:11:10;101257.50;;;23.35;46.31
13974;BME280;7060;43.770;4.008;2023-09-19T08:13:40;101251.16;;;23.48;46.80
13974;BME280;7060;43.770;4.008;2023-09-19T08:16:13;101254.81;;;23.67;46.42
13974;BME280;7060;43.770;4.008;2023-09-19T08:18:42;101256.22;;;23.82;45.73
13974;BME280;7060;43.770;4.008;2023-09-19T08:21:12;101254.81;;;24.05;45.33
13974;BME280;7060;43.770;4.008;2023-09-19T08:23:45;101262.41;;;24.27;44.75
13974;BME280;7060;43.770;4.008;2023-09-19T08:26:14;101262.59;;;24.51;44.83
13974;BME280;7060;43.770;4.008;2023-09-19T08:28:43;101260.47;;;24.78;43.33
13974;BME280;7060;43.770;4.008;2023-09-19T08:31:14;101254.69;;;25.04;43.01
13974;BME280;7060;43.770;4.008;2023-09-19T08:33:44;101259.19;;;25.35;42.26
13974;BME280;7060;43.770;4.008;2023-09-19T08:36:16;101261.06;;;25.53;41.50
13974;BME280;7060;43.770;4.008;2023-09-19T08:38:45;101261.84;;;25.83;41.96
13974;BME280;7060;43.770;4.008;2023-09-19T08:41:14;101257.19;;;26.02;41.12
13974;BME280;7060;43.770;4.008;2023-09-19T08:43:47;101255.31;;;26.26;40.48
13974;BME280;7060;43.770;4.008;2023-09-19T08:46:18;101257.56;;;26.41;38.82
13974;BME280;7060;43.770;4.008;2023-09-19T08:48:54;101258.56;;;26.35;39.09
13974;BME280;7060;43.770;4.008;2023-09-19T08:51:28;101256.75;;;26.28;38.36
13974;BME280;7060;43.770;4.008;2023-09-19T08:54:03;101250.66;;;26.26;39.14
13974;BME280;7060;43.770;4.008;2023-09-19T08:56:35;101257.94;;;26.21;38.74
13974;BME280;7060;43.770;4.008;2023-09-19T08:59:07;101253.38;;;26.15;38.18
13974;BME280;7060;43.770;4.008;2023-09-19T09:01:38;101256.34;;;26.13;39.16
13974;BME280;7060;43.770;4.008;2023-09-19T09:04:09;101220.22;;;25.93;38.68
13974;BME280;7060;43.770;4.008;2023-09-19T09:06:42;101254.81;;;26.06;38.91
13974;BME280;7060;43.770;4.008;2023-09-19T09:09:12;101260.31;;;26.06;39.34
13974;BME280;7060;43.770;4.008;2023-09-19T09:11:42;101262.38;;;25.92;39.33
13974;BME280;7060;43.770;4.008;2023-09-19T09:14:11;101261.03;;;25.83;39.89
13974;BME280;7060;43.770;4.008;2023-09-19T09:16:41;101259.25;;;25.77;39.55
13974;BME280;7060;43.770;4.008;2023-09-19T09:19:11;101260.31;;;25.76;39.58
13974;BME280;7060;43.770;4.008;2023-09-19T09:21:40;101263.03;;;25.76;39.70
13974;BME280;7060;43.770;4.008;2023-09-19T09:24:27;101240.25;;;25.63;39.64
13974;BME280;7060;43.770;4.008;2023-09-19T09:26:57;101246.47;;;25.71;40.63
13974;BME280;7060;43.770;4.008;2023-09-19T09:29:43;101258.19;;;25.78;40.12
13974;BME280;7060;43.770;4.008;2023-09-19T09:32:21;101252.69;;;25.78;40.21
13974;BME280;7060;43.770;4.008;2023-09-19T09:34:53;101256.63;;;25.82;40.15
13974;BME280;7060;43.770;4.008;2023-09-19T09:37:27;101244.81;;;25.81;39.34
13974;BME280;7060;43.770;4.008;2023-09-19T09:39:59;101255.53;;;25.83;39.25
13974;BME280;7060;43.770;4.008;2023-09-19T09:42:47;101250.56;;;25.80;39.74
13974;BME280;7060;43.770;4.008;2023-09-19T09:45:20;101240.91;;;25.77;39.03
13974;BME280;7060;43.770;4.008;2023-09-19T09:47:58;101242.91;;;25.82;39.16
13974;BME280;7060;43.770;4.008;2023-09-19T09:50:32;101235.19;;;25.79;38.90
13974;BME280;7060;43.770;4.008;2023-09-19T09:53:29;101239.09;;;25.83;39.52
13974;BME280;7060;43.770;4.008;2023-09-19T09:56:03;101233.03;;;25.81;38.90
13974;BME280;7060;43.770;4.008;2023-09-19T09:58:35;101229.13;;;25.77;39.34
13974;BME280;7060;43.770;4.008;2023-09-19T10:01:04;101231.50;;;25.85;39.88
13974;BME280;7060;43.770;4.008;2023-09-19T10:03:40;101227.59;;;25.92;38.86
13974;BME280;7060;43.770;4.008;2023-09-19T10:06:13;101223.56;;;25.95;38.69
13974;BME280;7060;43.770;4.008;2023-09-19T10:09:03;101223.72;;;26.00;38.77
13974;BME280;7060;43.770;4.008;2023-09-19T10:11:43;101224.44;;;26.07;38.47
13974;BME280;7060;43.770;4.008;2023-09-19T10:14:15;101225.16;;;26.14;38.58
13974;BME280;7060;43.770;4.008;2023-09-19T10:16:47;101227.66;;;26.27;38.43
13974;BME280;7060;43.770;4.008;2023-09-19T10:19:24;101221.09;;;26.40;38.20
13974;BME280;7060;43.770;4.008;2023-09-19T10:21:58;101226.00;;;26.50;38.05
13974;BME280;7060;43.770;4.008;2023-09-19T10:24:30;101220.63;;;26.67;37.67
13974;BME280;7060;43.770;4.008;2023-09-19T10:26:59;101226.22;;;26.83;37.40
13974;BME280;7060;43.770;4.008;2023-09-19T10:29:32;101227.84;;;26.96;36.54
13974;BME280;7060;43.770;4.008;2023-09-19T10:32:03;101226.53;;;27.10;36.12
13974;BME280;7060;43.770;4.008;2023-09-19T10:34:38;101218.50;;;27.20;36.02
13974;BME280;7060;43.770;4.008;2023-09-19T10:37:12;101221.72;;;27.29;36.15
13974;BME280;7060;43.770;4.008;2023-09-19T10:39:45;101223.47;;;27.35;35.76
13974;BME280;7060;43.770;4.008;2023-09-19T10:42:19;101225.50;;;27.40;36.04
13974;BME280;7060;43.770;4.008;2023-09-19T10:44:52;101220.59;;;27.42;35.90
13974;BME280;7060;43.770;4.008;2023-09-19T10:47:23;101217.91;;;27.47;35.28
13974;BME280;7060;43.770;4.008;2023-09-19T10:49:54;101216.69;;;27.54;35.01
13974;BME280;7060;43.770;4.008;2023-09-19T10:52:25;101205.31;;;27.62;34.98
13974;BME280;7060;43.770;4.008;2023-09-19T10:54:57;101206.53;;;27.83;34.81
13974;BME280;7060;43.770;4.008;2023-09-19T10:57:29;101205.69;;;28.00;34.40
13974;BME280;7060;43.770;4.008;2023-09-19T11:00:03;101197.53;;;28.21;33.73
13974;BME280;7060;43.770;4.008;2023-09-19T11:03:17;101195.13;;;28.42;33.16
13974;BME280;7060;43.770;4.008;2023-09-19T11:06:06;101187.78;;;28.47;33.45
13974;BME280;7060;43.770;4.008;2023-09-19T11:08:58;101184.38;;;28.62;33.15
13974;BME280;7060;43.770;4.008;2023-09-19T11:11:51;101179.97;;;28.83;33.10
13974;BME280;7060;43.770;4.008;2023-09-19T11:14:45;101172.53;;;29.00;32.60
13974;BME280;7060;43.770;4.008;2023-09-19T11:17:41;101167.44;;;29.14;32.61
13974;BME280;7060;43.770;4.008;2023-09-19T11:20:25;101172.50;;;29.22;32.67
13974;BME280;7060;43.770;4.008;2023-09-19T11:23:23;101173.50;;;29.16;32.46
13974;BME280;7060;43.770;4.008;2023-09-19T11:25:55;101161.34;;;29.12;32.70
13974;BME280;7060;43.770;4.008;2023-09-19T11:28:29;101164.47;;;29.20;32.12
13974;BME280;7060;43.770;4.008;2023-09-19T11:30:58;101174.09;;;29.18;32.14
13974;BME280;7060;43.770;4.008;2023-09-19T11:33:28;101165.25;;;29.16;31.36
13974;BME280;7060;43.770;4.008;2023-09-19T11:36:00;101154.16;;;29.06;32.04
13974;BME280;7060;43.770;4.008;2023-09-19T11:38:59;101164.22;;;29.22;31.42
13974;BME280;7060;43.770;4.008;2023-09-19T11:41:39;101156.34;;;29.30;31.50
13974;BME280;7060;43.770;4.008;2023-09-19T11:44:33;101152.81;;;29.35;31.32
13974;BME280;7060;43.770;4.008;2023-09-19T11:47:06;101149.03;;;29.46;31.24
13974;BME280;7060;43.770;4.008;2023-09-19T11:49:40;101151.28;;;29.49;30.81
13974;BME280;7060;43.770;4.008;2023-09-19T11:52:10;101153.97;;;29.44;30.86
13974;BME280;7060;43.770;4.008;2023-09-19T11:54:42;101143.53;;;29.46;30.40
13974;BME280;7060;43.770;4.008;2023-09-19T11:57:20;101128.34;;;29.44;30.77
13974;BME280;7060;43.770;4.008;2023-09-19T11:59:49;101138.16;;;29.56;30.36
13974;BME280;7060;43.770;4.008;2023-09-19T12:02:37;101071.75;;;29.26;30.64
13974;BME280;7060;43.770;4.008;2023-09-19T12:05:08;101129.13;;;29.66;30.66
13974;BME280;7060;43.770;4.008;2023-09-19T12:07:42;101125.03;;;29.69;30.23
13974;BME280;7060;43.770;4.008;2023-09-19T12:10:18;101120.38;;;29.74;30.80
13974;BME280;7060;43.770;4.008;2023-09-19T12:12:50;101109.63;;;29.73;30.32
13974;BME280;7060;43.770;4.008;2023-09-19T12:15:23;101105.50;;;29.75;30.21
13974;BME280;7060;43.770;4.008;2023-09-19T12:17:55;101108.78;;;29.72;30.02
13974;BME280;7060;43.770;4.008;2023-09-19T12:20:42;101104.41;;;29.76;29.95
13974;BME280;7060;43.770;4.008;2023-09-19T12:23:16;101090.59;;;29.71;30.55
13974;BME280;7060;43.770;4.008;2023-09-19T12:25:48;101094.22;;;29.77;30.20
13974;BME280;7060;43.770;4.008;2023-09-19T12:28:21;101092.56;;;29.76;30.48
13974;BME280;7060;43.770;4.008;2023-09-19T12:30:50;101095.38;;;29.81;30.16
13974;BME280;7060;43.770;4.008;2023-09-19T12:33:23;101093.09;;;29.73;30.09
13974;BME280;7060;43.770;4.008;2023-09-19T12:35:53;101082.06;;;29.73;30.39
13974;BME280;7060;43.770;4.008;2023-09-19T12:38:24;101081.31;;;29.82;30.28
13974;BME280;7060;43.770;4.008;2023-09-19T12:40:55;101073.91;;;29.88;30.26
13974;BME280;7060;43.770;4.008;2023-09-19T12:43:26;101067.06;;;29.95;30.54
13974;BME280;7060;43.770;4.008;2023-09-19T12:46:00;101074.50;;;29.95;30.53
13974;BME280;7060;43.770;4.008;2023-09-19T12:48:30;101076.47;;;30.00;30.03
13974;BME280;7060;43.770;4.008;2023-09-19T12:51:02;101073.19;;;30.08;30.08
13974;BME280;7060;43.770;4.008;2023-09-19T12:53:34;101069.16;;;30.15;30.19
13974;BME280;7060;43.770;4.008;2023-09-19T12:56:10;101067.47;;;30.19;30.38
13974;BME280;7060;43.770;4.008;2023-09-19T12:58:52;101065.03;;;30.23;30.22
13974;BME280;7060;43.770;4.008;2023-09-19T13:01:23;101062.00;;;30.24;29.81
13974;BME280;7060;43.770;4.008;2023-09-19T13:04:12;101058.44;;;30.29;30.02
13974;BME280;7060;43.770;4.008;2023-09-19T13:06:42;101049.94;;;30.36;30.32
13974;BME280;7060;43.770;4.008;2023-09-19T13:09:11;101023.13;;;30.26;29.50
13974;BME280;7060;43.770;4.008;2023-09-19T13:11:44;101043.91;;;30.44;30.02
13974;BME280;7060;43.770;4.008;2023-09-19T13:14:17;101044.44;;;30.46;29.94
13974;BME280;7060;43.770;4.008;2023-09-19T13:16:58;101036.97;;;30.46;29.89
13974;BME280;7060;43.770;4.008;2023-09-19T13:19:36;101038.09;;;30.50;29.50
13974;BME280;7060;43.770;4.008;2023-09-19T13:22:38;101032.88;;;30.54;29.32
13974;BME280;7060;43.770;4.008;2023-09-19T13:25:10;101025.69;;;30.53;29.27
13974;BME280;7060;43.770;4.008;2023-09-19T13:27:43;101025.72;;;30.58;28.98
13974;BME280;7060;43.770;4.008;2023-09-19T13:30:13;101020.75;;;30.60;28.66
13974;BME280;7060;43.770;4.008;2023-09-19T13:32:42;101024.38;;;30.66;28.85
13974;BME280;7060;43.770;4.008;2023-09-19T13:35:11;101013.03;;;30.62;28.68
13974;BME280;7060;43.770;4.008;2023-09-19T13:37:43;101012.50;;;30.65;29.21
13974;BME280;7060;43.770;4.008;2023-09-19T13:40:15;101011.16;;;30.68;28.95